sensor_id;sensor_type;location;lat;lon;timestamp;pressure;altitude;pressure_sealevel;temperature
8937;BMP180;4503;47.810;13.072;2022-08-19T00:04:42;96116.00;;;26.50
8937;BMP180;4503;47.810;13.072;2022-08-19T00:07:08;96113.00;;;26.40
8937;BMP180;4503;47.810;13.072;2022-08-19T00:09:34;96125.00;;;26.40
8937;BMP180;4503;47.810;13.072;2022-08-19T00:12:37;96118.00;;;26.40
8937;BMP180;4503;47.810;13.072;2022-08-19T00:15:11;96123.00;;;26.40
8937;BMP180;4503;47.810;13.072;2022-08-19T00:17:44;96124.00;;;26.40
8937;BMP180;4503;47.810;13.072;2022-08-19T00:20:13;96135.00;;;26.40
8937;BMP180;4503;47.810;13.072;2022-08-19T00:22:43;96137.00;;;26.30
8937;BMP180;4503;47.810;13.072;2022-08-19T00:25:10;96148.00;;;26.30
8937;BMP180;4503;47.810;13.072;2022-08-19T00:27:36;96139.00;;;26.30
8937;BMP180;4503;47.810;13.072;2022-08-19T00:30:05;96138.00;;;26.30
8937;BMP180;4503;47.810;13.072;2022-08-19T00:32:31;96143.00;;;26.30
8937;BMP180;4503;47.810;13.072;2022-08-19T00:34:58;96133.00;;;26.30
8937;BMP180;4503;47.810;13.072;2022-08-19T00:37:24;96146.00;;;26.30
8937;BMP180;4503;47.810;13.072;2022-08-19T00:39:52;96144.00;;;26.40
8937;BMP180;4503;47.810;13.072;2022-08-19T00:42:20;96148.00;;;26.40
8937;BMP180;4503;47.810;13.072;2022-08-19T00:44:46;96149.00;;;26.50
8937;BMP180;4503;47.810;13.072;2022-08-19T00:47:13;96156.00;;;26.50
8937;BMP180;4503;47.810;13.072;2022-08-19T00:49:50;96148.00;;;26.50
8937;BMP180;4503;47.810;13.072;2022-08-19T00:52:32;96138.00;;;26.50
8937;BMP180;4503;47.810;13.072;2022-08-19T00:55:00;96121.00;;;26.60
8937;BMP180;4503;47.810;13.072;2022-08-19T00:57:38;96114.00;;;26.60
8937;BMP180;4503;47.810;13.072;2022-08-19T01:00:13;96114.00;;;26.60
8937;BMP180;4503;47.810;13.072;2022-08-19T01:02:41;96101.00;;;26.50
8937;BMP180;4503;47.810;13.072;2022-08-19T01:05:17;96102.00;;;26.50
8937;BMP180;4503;47.810;13.072;2022-08-19T01:07:47;96108.00;;;26.50
8937;BMP180;4503;47.810;13.072;2022-08-19T01:10:18;96106.00;;;26.50
8937;BMP180;4503;47.810;13.072;2022-08-19T01:12:46;96085.00;;;26.50
8937;BMP180;4503;47.810;13.072;2022-08-19T01:15:17;96090.00;;;26.40
8937;BMP180;4503;47.810;13.072;2022-08-19T01:17:45;96102.00;;;26.40
8937;BMP180;4503;47.810;13.072;2022-08-19T01:20:17;96111.00;;;26.40
8937;BMP180;4503;47.810;13.072;2022-08-19T01:22:55;96117.00;;;26.50
8937;BMP180;4503;47.810;13.072;2022-08-19T01:25:32;96124.00;;;26.50
8937;BMP180;4503;47.810;13.072;2022-08-19T01:27:59;96129.00;;;26.50
8937;BMP180;4503;47.810;13.072;2022-08-19T01:30:30;96127.00;;;26.50
8937;BMP180;4503;47.810;13.072;2022-08-19T01:33:00;96114.00;;;26.50
8937;BMP180;4503;47.810;13.072;2022-08-19T01:35:29;96102.00;;;26.60
8937;BMP180;4503;47.810;13.072;2022-08-19T01:38:04;96103.00;;;26.60
8937;BMP180;4503;47.810;13.072;2022-08-19T01:40:37;96101.00;;;26.60
8937;BMP180;4503;47.810;13.072;2022-08-19T01:43:05;96120.00;;;26.60
8937;BMP180;4503;47.810;13.072;2022-08-19T01:45:33;96143.00;;;26.60
8937;BMP180;4503;47.810;13.072;2022-08-19T01:48:01;96167.00;;;26.60
8937;BMP180;4503;47.810;13.072;2022-08-19T01:50:28;96171.00;;;26.60
8937;BMP180;4503;47.810;13.072;2022-08-19T01:52:54;96163.00;;;26.70
8937;BMP180;4503;47.810;13.072;2022-08-19T01:55:21;96151.00;;;26.70
8937;BMP180;4503;47.810;13.072;2022-08-19T01:57:55;96139.00;;;26.70
8937;BMP180;4503;47.810;13.072;2022-08-19T02:00:26;96146.00;;;26.70
8937;BMP180;4503;47.810;13.072;2022-08-19T02:02:53;96139.00;;;26.70
8937;BMP180;4503;47.810;13.072;2022-08-19T02:05:20;96138.00;;;26.70
8937;BMP180;4503;47.810;13.072;2022-08-19T02:07:47;96141.00;;;26.70
8937;BMP180;4503;47.810;13.072;2022-08-19T02:10:20;96152.00;;;26.70
8937;BMP180;4503;47.810;13.072;2022-08-19T02:12:48;96150.00;;;26.70
8937;BMP180;4503;47.810;13.072;2022-08-19T02:15:16;96161.00;;;26.70
8937;BMP180;4503;47.810;13.072;2022-08-19T02:17:42;96155.00;;;26.70
8937;BMP180;4503;47.810;13.072;2022-08-19T02:20:09;96155.00;;;26.80
8937;BMP180;4503;47.810;13.072;2022-08-19T02:22:35;96161.00;;;26.80
8937;BMP180;4503;47.810;13.072;2022-08-19T02:25:02;96169.00;;;26.70
8937;BMP180;4503;47.810;13.072;2022-08-19T02:27:29;96173.00;;;26.80
8937;BMP180;4503;47.810;13.072;2022-08-19T02:29:56;96172.00;;;26.80
8937;BMP180;4503;47.810;13.072;2022-08-19T02:32:22;96170.00;;;26.80
8937;BMP180;4503;47.810;13.072;2022-08-19T02:34:48;96154.00;;;26.80
8937;BMP180;4503;47.810;13.072;2022-08-19T02:37:14;96152.00;;;26.80
8937;BMP180;4503;47.810;13.072;2022-08-19T02:39:59;96147.00;;;26.80
8937;BMP180;4503;47.810;13.072;2022-08-19T02:42:25;96149.00;;;26.80
8937;BMP180;4503;47.810;13.072;2022-08-19T02:44:51;96140.00;;;26.80
8937;BMP180;4503;47.810;13.072;2022-08-19T02:47:21;96140.00;;;26.70
8937;BMP180;4503;47.810;13.072;2022-08-19T02:49:47;96139.00;;;26.70
8937;BMP180;4503;47.810;13.072;2022-08-19T02:52:16;96124.00;;;26.70
8937;BMP180;4503;47.810;13.072;2022-08-19T02:54:42;96124.00;;;26.70
8937;BMP180;4503;47.810;13.072;2022-08-19T02:57:09;96129.00;;;26.70
8937;BMP180;4503;47.810;13.072;2022-08-19T02:59:35;96137.00;;;26.60
8937;BMP180;4503;47.810;13.072;2022-08-19T03:02:01;96142.00;;;26.60
8937;BMP180;4503;47.810;13.072;2022-08-19T03:04:27;96157.00;;;26.60
8937;BMP180;4503;47.810;13.072;2022-08-19T03:06:55;96156.00;;;26.60
8937;BMP180;4503;47.810;13.072;2022-08-19T03:09:21;96169.00;;;26.60
8937;BMP180;4503;47.810;13.072;2022-08-19T03:11:47;96177.00;;;26.60
8937;BMP180;4503;47.810;13.072;2022-08-19T03:14:13;96173.00;;;26.60
8937;BMP180;4503;47.810;13.072;2022-08-19T03:16:51;96174.00;;;26.60
8937;BMP180;4503;47.810;13.072;2022-08-19T03:19:19;96166.00;;;26.60
8937;BMP180;4503;47.810;13.072;2022-08-19T03:21:47;96166.00;;;26.60
8937;BMP180;4503;47.810;13.072;2022-08-19T03:24:15;96175.00;;;26.60
8937;BMP180;4503;47.810;13.072;2022-08-19T03:26:45;96183.00;;;26.50
8937;BMP180;4503;47.810;13.072;2022-08-19T03:29:12;96207.00;;;26.60
8937;BMP180;4503;47.810;13.072;2022-08-19T03:31:40;96215.00;;;26.60
8937;BMP180;4503;47.810;13.072;2022-08-19T03:34:07;96229.00;;;26.60
8937;BMP180;4503;47.810;13.072;2022-08-19T03:36:33;96234.00;;;26.70
8937;BMP180;4503;47.810;13.072;2022-08-19T03:39:00;96240.00;;;26.70
8937;BMP180;4503;47.810;13.072;2022-08-19T03:41:38;96244.00;;;26.70
8937;BMP180;4503;47.810;13.072;2022-08-19T03:44:05;96232.00;;;26.70
8937;BMP180;4503;47.810;13.072;2022-08-19T03:46:32;96234.00;;;26.80
8937;BMP180;4503;47.810;13.072;2022-08-19T03:49:02;96238.00;;;26.80
8937;BMP180;4503;47.810;13.072;2022-08-19T03:51:38;96241.00;;;26.80
8937;BMP180;4503;47.810;13.072;2022-08-19T03:54:09;96237.00;;;26.80
8937;BMP180;4503;47.810;13.072;2022-08-19T03:56:37;96245.00;;;26.80
8937;BMP180;4503;47.810;13.072;2022-08-19T03:59:08;96243.00;;;26.80
8937;BMP180;4503;47.810;13.072;2022-08-19T04:01:35;96251.00;;;26.70
8937;BMP180;4503;47.810;13.072;2022-08-19T04:22:35;96273.00;;;26.20
8937;BMP180;4503;47.810;13.072;2022-08-19T04:25:01;96269.00;;;26.10
8937;BMP180;4503;47.810;13.072;2022-08-19T04:27:27;96266.00;;;26.00
8937;BMP180;4503;47.810;13.072;2022-08-19T04:29:53;96257.00;;;25.90
8937;BMP180;4503;47.810;13.072;2022-08-19T04:32:20;96256.00;;;25.90
8937;BMP180;4503;47.810;13.072;2022-08-19T04:34:46;96248.00;;;25.90
8937;BMP180;4503;47.810;13.072;2022-08-19T04:37:12;96236.00;;;25.90
8937;BMP180;4503;47.810;13.072;2022-08-19T04:39:39;96228.00;;;25.90
8937;BMP180;4503;47.810;13.072;2022-08-19T04:42:24;96222.00;;;25.80
8937;BMP180;4503;47.810;13.072;2022-08-19T04:45:08;96219.00;;;25.80
8937;BMP180;4503;47.810;13.072;2022-08-19T04:47:41;96217.00;;;25.80
8937;BMP180;4503;47.810;13.072;2022-08-19T04:50:08;96217.00;;;25.70
8937;BMP180;4503;47.810;13.072;2022-08-19T04:52:35;96210.00;;;25.70
8937;BMP180;4503;47.810;13.072;2022-08-19T04:55:01;96198.00;;;25.70
8937;BMP180;4503;47.810;13.072;2022-08-19T04:57:27;96186.00;;;25.60
8937;BMP180;4503;47.810;13.072;2022-08-19T04:59:56;96187.00;;;25.60
8937;BMP180;4503;47.810;13.072;2022-08-19T05:02:22;96183.00;;;25.50
8937;BMP180;4503;47.810;13.072;2022-08-19T05:12:35;96168.00;;;25.40
8937;BMP180;4503;47.810;13.072;2022-08-19T05:15:05;96170.00;;;25.40
8937;BMP180;4503;47.810;13.072;2022-08-19T05:17:34;96173.00;;;25.40
8937;BMP180;4503;47.810;13.072;2022-08-19T05:20:00;96165.00;;;25.40
8937;BMP180;4503;47.810;13.072;2022-08-19T05:22:46;96169.00;;;25.40
8937;BMP180;4503;47.810;13.072;2022-08-19T05:25:17;96177.00;;;25.40
8937;BMP180;4503;47.810;13.072;2022-08-19T05:27:44;96178.00;;;25.40
8937;BMP180;4503;47.810;13.072;2022-08-19T05:30:11;96177.00;;;25.30
8937;BMP180;4503;47.810;13.072;2022-08-19T05:32:38;96178.00;;;25.20
8937;BMP180;4503;47.810;13.072;2022-08-19T05:35:05;96176.00;;;25.10
8937;BMP180;4503;47.810;13.072;2022-08-19T05:37:31;96178.00;;;25.10
8937;BMP180;4503;47.810;13.072;2022-08-19T05:39:57;96180.00;;;25.10
8937;BMP180;4503;47.810;13.072;2022-08-19T05:42:23;96183.00;;;25.20
8937;BMP180;4503;47.810;13.072;2022-08-19T05:44:50;96193.00;;;25.20
8937;BMP180;4503;47.810;13.072;2022-08-19T05:47:17;96190.00;;;25.30
8937;BMP180;4503;47.810;13.072;2022-08-19T05:49:45;96201.00;;;25.40
8937;BMP180;4503;47.810;13.072;2022-08-19T05:52:14;96194.00;;;25.40
8937;BMP180;4503;47.810;13.072;2022-08-19T05:54:41;96194.00;;;25.50
8937;BMP180;4503;47.810;13.072;2022-08-19T05:57:09;96191.00;;;25.60
8937;BMP180;4503;47.810;13.072;2022-08-19T05:59:35;96196.00;;;25.70
8937;BMP180;4503;47.810;13.072;2022-08-19T06:02:03;96193.00;;;25.70
8937;BMP180;4503;47.810;13.072;2022-08-19T06:12:36;96182.00;;;25.90
8937;BMP180;4503;47.810;13.072;2022-08-19T06:15:07;96181.00;;;25.90
8937;BMP180;4503;47.810;13.072;2022-08-19T06:17:34;96183.00;;;26.00
8937;BMP180;4503;47.810;13.072;2022-08-19T06:20:05;96191.00;;;26.00
8937;BMP180;4503;47.810;13.072;2022-08-19T06:22:37;96183.00;;;26.00
8937;BMP180;4503;47.810;13.072;2022-08-19T06:25:04;96180.00;;;26.10
8937;BMP180;4503;47.810;13.072;2022-08-19T06:27:30;96177.00;;;26.20
8937;BMP180;4503;47.810;13.072;2022-08-19T06:29:57;96175.00;;;26.30
8937;BMP180;4503;47.810;13.072;2022-08-19T06:32:23;96186.00;;;26.40
8937;BMP180;4503;47.810;13.072;2022-08-19T06:34:49;96186.00;;;26.50
8937;BMP180;4503;47.810;13.072;2022-08-19T06:37:15;96190.00;;;26.60
8937;BMP180;4503;47.810;13.072;2022-08-19T06:39:43;96192.00;;;26.70
8937;BMP180;4503;47.810;13.072;2022-08-19T06:42:11;96190.00;;;26.70
8937;BMP180;4503;47.810;13.072;2022-08-19T06:44:42;96199.00;;;26.80
8937;BMP180;4503;47.810;13.072;2022-08-19T06:47:12;96196.00;;;26.70
8937;BMP180;4503;47.810;13.072;2022-08-19T06:49:39;96184.00;;;26.80
8937;BMP180;4503;47.810;13.072;2022-08-19T06:52:05;96167.00;;;26.80
8937;BMP180;4503;47.810;13.072;2022-08-19T06:54:32;96165.00;;;26.80
8937;BMP180;4503;47.810;13.072;2022-08-19T06:56:59;96166.00;;;26.80
8937;BMP180;4503;47.810;13.072;2022-08-19T06:59:30;96181.00;;;26.80
8937;BMP180;4503;47.810;13.072;2022-08-19T07:02:02;96189.00;;;26.80
8937;BMP180;4503;47.810;13.072;2022-08-19T07:12:35;96165.00;;;26.80
8937;BMP180;4503;47.810;13.072;2022-08-19T07:15:01;96173.00;;;26.70
8937;BMP180;4503;47.810;13.072;2022-08-19T07:17:27;96160.00;;;26.70
8937;BMP180;4503;47.810;13.072;2022-08-19T07:19:53;96150.00;;;26.70
8937;BMP180;4503;47.810;13.072;2022-08-19T07:22:19;96140.00;;;26.80
8937;BMP180;4503;47.810;13.072;2022-08-19T07:24:46;96138.00;;;26.80
8937;BMP180;4503;47.810;13.072;2022-08-19T07:27:14;96138.00;;;26.90
8937;BMP180;4503;47.810;13.072;2022-08-19T07:29:40;96131.00;;;26.90
8937;BMP180;4503;47.810;13.072;2022-08-19T07:32:06;96136.00;;;27.00
8937;BMP180;4503;47.810;13.072;2022-08-19T07:34:35;96139.00;;;27.10
8937;BMP180;4503;47.810;13.072;2022-08-19T07:37:05;96139.00;;;27.10
8937;BMP180;4503;47.810;13.072;2022-08-19T07:39:34;96151.00;;;27.20
8937;BMP180;4503;47.810;13.072;2022-08-19T07:42:07;96165.00;;;27.30
8937;BMP180;4503;47.810;13.072;2022-08-19T07:44:36;96169.00;;;27.40
8937;BMP180;4503;47.810;13.072;2022-08-19T07:47:04;96178.00;;;27.40
8937;BMP180;4503;47.810;13.072;2022-08-19T07:49:30;96191.00;;;27.50
8937;BMP180;4503;47.810;13.072;2022-08-19T07:52:06;96195.00;;;27.50
8937;BMP180;4503;47.810;13.072;2022-08-19T07:54:35;96212.00;;;27.50
8937;BMP180;4503;47.810;13.072;2022-08-19T07:57:03;96204.00;;;27.40
8937;BMP180;4503;47.810;13.072;2022-08-19T07:59:29;96197.00;;;27.40
8937;BMP180;4503;47.810;13.072;2022-08-19T08:01:57;96205.00;;;27.30
8937;BMP180;4503;47.810;13.072;2022-08-19T08:12:37;96201.00;;;27.30
8937;BMP180;4503;47.810;13.072;2022-08-19T08:15:11;96197.00;;;27.40
8937;BMP180;4503;47.810;13.072;2022-08-19T08:17:42;96197.00;;;27.60
8937;BMP180;4503;47.810;13.072;2022-08-19T08:20:09;96197.00;;;27.80
8937;BMP180;4503;47.810;13.072;2022-08-19T08:22:35;96205.00;;;28.00
8937;BMP180;4503;47.810;13.072;2022-08-19T08:25:23;96201.00;;;28.10
8937;BMP180;4503;47.810;13.072;2022-08-19T08:27:50;96187.00;;;28.20
8937;BMP180;4503;47.810;13.072;2022-08-19T08:30:21;96199.00;;;28.20
8937;BMP180;4503;47.810;13.072;2022-08-19T08:32:48;96196.00;;;28.30
8937;BMP180;4503;47.810;13.072;2022-08-19T08:35:18;96194.00;;;28.40
8937;BMP180;4503;47.810;13.072;2022-08-19T08:37:46;96202.00;;;28.50
8937;BMP180;4503;47.810;13.072;2022-08-19T08:40:45;96197.00;;;28.80
8937;BMP180;4503;47.810;13.072;2022-08-19T08:43:27;96203.00;;;29.00
8937;BMP180;4503;47.810;13.072;2022-08-19T08:46:03;96190.00;;;29.00
8937;BMP180;4503;47.810;13.072;2022-08-19T08:48:55;96186.00;;;29.00
8937;BMP180;4503;47.810;13.072;2022-08-19T08:51:51;96174.00;;;28.90
8937;BMP180;4503;47.810;13.072;2022-08-19T08:54:24;96188.00;;;28.90
8937;BMP180;4503;47.810;13.072;2022-08-19T08:56:53;96183.00;;;28.90
8937;BMP180;4503;47.810;13.072;2022-08-19T08:59:31;96177.00;;;28.90
8937;BMP180;4503;47.810;13.072;2022-08-19T09:02:00;96171.00;;;28.90
8937;BMP180;4503;47.810;13.072;2022-08-19T09:15:20;96223.00;;;29.00
8937;BMP180;4503;47.810;13.072;2022-08-19T09:17:48;96212.00;;;29.00
8937;BMP180;4503;47.810;13.072;2022-08-19T09:20:20;96212.00;;;29.00
8937;BMP180;4503;47.810;13.072;2022-08-19T09:22:47;96218.00;;;29.20
8937;BMP180;4503;47.810;13.072;2022-08-19T09:25:18;96219.00;;;29.30
8937;BMP180;4503;47.810;13.072;2022-08-19T09:27:44;96208.00;;;29.20
8937;BMP180;4503;47.810;13.072;2022-08-19T09:30:17;96205.00;;;29.20
8937;BMP180;4503;47.810;13.072;2022-08-19T09:32:44;96208.00;;;29.20
8937;BMP180;4503;47.810;13.072;2022-08-19T09:35:12;96198.00;;;29.20
8937;BMP180;4503;47.810;13.072;2022-08-19T09:37:39;96196.00;;;29.30
8937;BMP180;4503;47.810;13.072;2022-08-19T09:40:05;96199.00;;;29.30
8937;BMP180;4503;47.810;13.072;2022-08-19T09:42:32;96189.00;;;29.50
8937;BMP180;4503;47.810;13.072;2022-08-19T09:44:59;96186.00;;;29.60
8937;BMP180;4503;47.810;13.072;2022-08-19T09:47:25;96179.00;;;29.70
8937;BMP180;4503;47.810;13.072;2022-08-19T09:49:51;96179.00;;;29.70
8937;BMP180;4503;47.810;13.072;2022-08-19T09:52:17;96173.00;;;29.70
8937;BMP180;4503;47.810;13.072;2022-08-19T09:54:44;96173.00;;;29.60
8937;BMP180;4503;47.810;13.072;2022-08-19T09:57:09;96178.00;;;29.50
8937;BMP180;4503;47.810;13.072;2022-08-19T09:59:35;96173.00;;;29.50
8937;BMP180;4503;47.810;13.072;2022-08-19T10:02:02;96170.00;;;29.60
8937;BMP180;4503;47.810;13.072;2022-08-19T10:12:34;96169.00;;;30.00
8937;BMP180;4503;47.810;13.072;2022-08-19T10:15:02;96167.00;;;30.20
8937;BMP180;4503;47.810;13.072;2022-08-19T10:17:28;96161.00;;;30.30
8937;BMP180;4503;47.810;13.072;2022-08-19T10:19:54;96166.00;;;30.20
8937;BMP180;4503;47.810;13.072;2022-08-19T10:22:20;96178.00;;;30.20
8937;BMP180;4503;47.810;13.072;2022-08-19T10:24:46;96176.00;;;30.20
8937;BMP180;4503;47.810;13.072;2022-08-19T10:27:12;96190.00;;;30.30
8937;BMP180;4503;47.810;13.072;2022-08-19T10:29:40;96176.00;;;30.50
8937;BMP180;4503;47.810;13.072;2022-08-19T10:32:08;96184.00;;;30.60
8937;BMP180;4503;47.810;13.072;2022-08-19T10:34:37;96175.00;;;30.80
8937;BMP180;4503;47.810;13.072;2022-08-19T10:37:05;96172.00;;;31.00
8937;BMP180;4503;47.810;13.072;2022-08-19T10:39:36;96171.00;;;31.10
8937;BMP180;4503;47.810;13.072;2022-08-19T10:42:08;96164.00;;;31.10
8937;BMP180;4503;47.810;13.072;2022-08-19T10:44:38;96161.00;;;31.20
8937;BMP180;4503;47.810;13.072;2022-08-19T10:47:05;96163.00;;;31.30
8937;BMP180;4503;47.810;13.072;2022-08-19T10:49:31;96156.00;;;31.30
8937;BMP180;4503;47.810;13.072;2022-08-19T10:51:58;96158.00;;;31.50
8937;BMP180;4503;47.810;13.072;2022-08-19T10:54:42;96155.00;;;31.70
8937;BMP180;4503;47.810;13.072;2022-08-19T10:57:31;96153.00;;;31.80
8937;BMP180;4503;47.810;13.072;2022-08-19T10:59:57;96156.00;;;31.90
8937;BMP180;4503;47.810;13.072;2022-08-19T11:02:22;96153.00;;;31.90
8937;BMP180;4503;47.810;13.072;2022-08-19T11:04:48;96159.00;;;31.80
8937;BMP180;4503;47.810;13.072;2022-08-19T11:07:17;96150.00;;;31.70
8937;BMP180;4503;47.810;13.072;2022-08-19T11:09:43;96143.00;;;31.80
8937;BMP180;4503;47.810;13.072;2022-08-19T11:12:10;96144.00;;;31.90
8937;BMP180;4503;47.810;13.072;2022-08-19T11:14:38;96144.00;;;31.90
8937;BMP180;4503;47.810;13.072;2022-08-19T11:17:05;96143.00;;;31.80
8937;BMP180;4503;47.810;13.072;2022-08-19T11:19:31;96143.00;;;31.80
8937;BMP180;4503;47.810;13.072;2022-08-19T11:21:57;96128.00;;;31.80
8937;BMP180;4503;47.810;13.072;2022-08-19T11:24:25;96131.00;;;31.80
8937;BMP180;4503;47.810;13.072;2022-08-19T11:26:58;96140.00;;;31.80
8937;BMP180;4503;47.810;13.072;2022-08-19T11:29:26;96124.00;;;31.80
8937;BMP180;4503;47.810;13.072;2022-08-19T11:31:53;96117.00;;;31.80
8937;BMP180;4503;47.810;13.072;2022-08-19T11:34:26;96122.00;;;31.80
8937;BMP180;4503;47.810;13.072;2022-08-19T11:36:55;96123.00;;;31.90
8937;BMP180;4503;47.810;13.072;2022-08-19T11:39:28;96127.00;;;31.90
8937;BMP180;4503;47.810;13.072;2022-08-19T11:41:55;96127.00;;;32.00
8937;BMP180;4503;47.810;13.072;2022-08-19T11:44:21;96124.00;;;31.90
8937;BMP180;4503;47.810;13.072;2022-08-19T11:46:47;96130.00;;;31.90
8937;BMP180;4503;47.810;13.072;2022-08-19T11:49:16;96137.00;;;31.90
8937;BMP180;4503;47.810;13.072;2022-08-19T11:51:45;96138.00;;;32.00
8937;BMP180;4503;47.810;13.072;2022-08-19T11:54:13;96135.00;;;32.30
8937;BMP180;4503;47.810;13.072;2022-08-19T11:56:40;96132.00;;;32.60
8937;BMP180;4503;47.810;13.072;2022-08-19T11:59:06;96122.00;;;32.90
8937;BMP180;4503;47.810;13.072;2022-08-19T12:01:33;96125.00;;;33.10
8937;BMP180;4503;47.810;13.072;2022-08-19T12:04:00;96126.00;;;33.30
8937;BMP180;4503;47.810;13.072;2022-08-19T12:06:29;96122.00;;;33.50
8937;BMP180;4503;47.810;13.072;2022-08-19T12:08:59;96117.00;;;33.60
8937;BMP180;4503;47.810;13.072;2022-08-19T12:11:26;96124.00;;;33.50
8937;BMP180;4503;47.810;13.072;2022-08-19T12:13:53;96128.00;;;33.50
8937;BMP180;4503;47.810;13.072;2022-08-19T12:16:30;96127.00;;;33.40
8937;BMP180;4503;47.810;13.072;2022-08-19T12:18:57;96118.00;;;33.30
8937;BMP180;4503;47.810;13.072;2022-08-19T12:21:29;96114.00;;;33.20
8937;BMP180;4503;47.810;13.072;2022-08-19T12:23:58;96121.00;;;33.10
8937;BMP180;4503;47.810;13.072;2022-08-19T12:26:46;96106.00;;;32.90
8937;BMP180;4503;47.810;13.072;2022-08-19T12:29:13;96109.00;;;32.80
8937;BMP180;4503;47.810;13.072;2022-08-19T12:34:08;96109.00;;;32.70
8937;BMP180;4503;47.810;13.072;2022-08-19T12:36:34;96115.00;;;32.70
8937;BMP180;4503;47.810;13.072;2022-08-19T12:39:00;96119.00;;;32.70
8937;BMP180;4503;47.810;13.072;2022-08-19T12:41:26;96122.00;;;32.60
8937;BMP180;4503;47.810;13.072;2022-08-19T12:43:52;96127.00;;;32.50
8937;BMP180;4503;47.810;13.072;2022-08-19T12:46:19;96121.00;;;32.50
8937;BMP180;4503;47.810;13.072;2022-08-19T12:48:46;96125.00;;;32.50
8937;BMP180;4503;47.810;13.072;2022-08-19T12:51:18;96125.00;;;32.50
8937;BMP180;4503;47.810;13.072;2022-08-19T12:53:46;96116.00;;;32.60
8937;BMP180;4503;47.810;13.072;2022-08-19T12:56:13;96115.00;;;32.70
8937;BMP180;4503;47.810;13.072;2022-08-19T12:58:41;96126.00;;;32.70
8937;BMP180;4503;47.810;13.072;2022-08-19T13:01:11;96129.00;;;32.70
8937;BMP180;4503;47.810;13.072;2022-08-19T13:03:37;96136.00;;;32.80
8937;BMP180;4503;47.810;13.072;2022-08-19T13:06:04;96137.00;;;32.80
8937;BMP180;4503;47.810;13.072;2022-08-19T13:08:30;96139.00;;;32.80
8937;BMP180;4503;47.810;13.072;2022-08-19T13:10:56;96142.00;;;32.70
8937;BMP180;4503;47.810;13.072;2022-08-19T13:13:23;96143.00;;;32.60
8937;BMP180;4503;47.810;13.072;2022-08-19T13:23:43;96152.00;;;32.10
8937;BMP180;4503;47.810;13.072;2022-08-19T13:26:11;96159.00;;;32.10
8937;BMP180;4503;47.810;13.072;2022-08-19T13:28:37;96158.00;;;31.90
8937;BMP180;4503;47.810;13.072;2022-08-19T13:31:27;96157.00;;;31.70
8937;BMP180;4503;47.810;13.072;2022-08-19T13:34:13;96153.00;;;31.60
8937;BMP180;4503;47.810;13.072;2022-08-19T13:36:39;96152.00;;;31.50
8937;BMP180;4503;47.810;13.072;2022-08-19T13:39:07;96156.00;;;31.60
8937;BMP180;4503;47.810;13.072;2022-08-19T13:41:34;96155.00;;;31.60
8937;BMP180;4503;47.810;13.072;2022-08-19T13:44:02;96154.00;;;31.60
8937;BMP180;4503;47.810;13.072;2022-08-19T13:46:28;96151.00;;;31.60
8937;BMP180;4503;47.810;13.072;2022-08-19T13:48:55;96142.00;;;31.50
8937;BMP180;4503;47.810;13.072;2022-08-19T13:51:22;96145.00;;;31.40
8937;BMP180;4503;47.810;13.072;2022-08-19T13:53:48;96142.00;;;31.30
8937;BMP180;4503;47.810;13.072;2022-08-19T13:56:19;96142.00;;;31.30
8937;BMP180;4503;47.810;13.072;2022-08-19T13:58:45;96140.00;;;31.30
8937;BMP180;4503;47.810;13.072;2022-08-19T14:01:11;96139.00;;;31.40
8937;BMP180;4503;47.810;13.072;2022-08-19T14:03:38;96133.00;;;31.40
8937;BMP180;4503;47.810;13.072;2022-08-19T14:06:04;96124.00;;;31.40
8937;BMP180;4503;47.810;13.072;2022-08-19T14:08:30;96131.00;;;31.30
8937;BMP180;4503;47.810;13.072;2022-08-19T14:10:58;96132.00;;;31.20
8937;BMP180;4503;47.810;13.072;2022-08-19T14:13:24;96133.00;;;31.10
8937;BMP180;4503;47.810;13.072;2022-08-19T14:23:23;96125.00;;;30.40
8937;BMP180;4503;47.810;13.072;2022-08-19T14:25:50;96124.00;;;30.30
8937;BMP180;4503;47.810;13.072;2022-08-19T14:28:15;96118.00;;;30.10
8937;BMP180;4503;47.810;13.072;2022-08-19T14:30:42;96119.00;;;30.10
8937;BMP180;4503;47.810;13.072;2022-08-19T14:33:10;96119.00;;;30.10
8937;BMP180;4503;47.810;13.072;2022-08-19T14:35:36;96114.00;;;30.10
8937;BMP180;4503;47.810;13.072;2022-08-19T14:38:16;96119.00;;;30.00
8937;BMP180;4503;47.810;13.072;2022-08-19T14:40:42;96119.00;;;30.00
8937;BMP180;4503;47.810;13.072;2022-08-19T14:43:08;96120.00;;;30.00
8937;BMP180;4503;47.810;13.072;2022-08-19T14:45:40;96112.00;;;30.00
8937;BMP180;4503;47.810;13.072;2022-08-19T14:48:08;96115.00;;;29.90
8937;BMP180;4503;47.810;13.072;2022-08-19T14:50:35;96110.00;;;29.90
8937;BMP180;4503;47.810;13.072;2022-08-19T14:53:08;96118.00;;;29.90
8937;BMP180;4503;47.810;13.072;2022-08-19T14:55:35;96119.00;;;29.80
8937;BMP180;4503;47.810;13.072;2022-08-19T14:58:01;96125.00;;;29.70
8937;BMP180;4503;47.810;13.072;2022-08-19T15:00:27;96124.00;;;29.60
8937;BMP180;4503;47.810;13.072;2022-08-19T15:02:53;96125.00;;;29.60
8937;BMP180;4503;47.810;13.072;2022-08-19T15:05:20;96128.00;;;29.50
8937;BMP180;4503;47.810;13.072;2022-08-19T15:07:46;96132.00;;;29.50
8937;BMP180;4503;47.810;13.072;2022-08-19T15:10:14;96139.00;;;29.40
8937;BMP180;4503;47.810;13.072;2022-08-19T15:12:41;96143.00;;;29.40
8937;BMP180;4503;47.810;13.072;2022-08-19T15:15:13;96143.00;;;29.30
8937;BMP180;4503;47.810;13.072;2022-08-19T15:17:41;96143.00;;;29.20
8937;BMP180;4503;47.810;13.072;2022-08-19T15:20:09;96157.00;;;29.20
8937;BMP180;4503;47.810;13.072;2022-08-19T15:22:35;96157.00;;;29.20
8937;BMP180;4503;47.810;13.072;2022-08-19T15:25:03;96163.00;;;29.10
8937;BMP180;4503;47.810;13.072;2022-08-19T15:27:29;96167.00;;;29.10
8937;BMP180;4503;47.810;13.072;2022-08-19T15:29:55;96157.00;;;29.10
8937;BMP180;4503;47.810;13.072;2022-08-19T15:32:22;96164.00;;;29.20
8937;BMP180;4503;47.810;13.072;2022-08-19T15:34:50;96154.00;;;29.20
8937;BMP180;4503;47.810;13.072;2022-08-19T15:37:16;96161.00;;;29.10
8937;BMP180;4503;47.810;13.072;2022-08-19T15:39:42;96169.00;;;29.10
8937;BMP180;4503;47.810;13.072;2022-08-19T15:42:08;96170.00;;;29.10
8937;BMP180;4503;47.810;13.072;2022-08-19T15:52:35;96171.00;;;29.20
8937;BMP180;4503;47.810;13.072;2022-08-19T16:02:35;96181.00;;;30.30
8937;BMP180;4503;47.810;13.072;2022-08-19T16:05:25;96184.00;;;30.80
8937;BMP180;4503;47.810;13.072;2022-08-19T16:08:10;96191.00;;;31.10
8937;BMP180;4503;47.810;13.072;2022-08-19T16:10:38;96196.00;;;31.00
8937;BMP180;4503;47.810;13.072;2022-08-19T16:13:04;96196.00;;;30.90
8937;BMP180;4503;47.810;13.072;2022-08-19T16:15:31;96202.00;;;30.80
8937;BMP180;4503;47.810;13.072;2022-08-19T16:17:59;96206.00;;;30.80